sensor_id;sensor_type;location;lat;lon;timestamp;P1;durP1;ratioP1;P2;durP2;ratioP2
22525;SDS011;11429;50.842;4.386;2023-02-01T00:00:24;36.88;;;12.77;;
22525;SDS011;11429;50.842;4.386;2023-02-01T00:02:49;30.98;;;12.90;;
22525;SDS011;11429;50.842;4.386;2023-02-01T00:05:15;35.35;;;12.18;;
22525;SDS011;11429;50.842;4.386;2023-02-01T00:07:41;29.23;;;12.25;;
22525;SDS011;11429;50.842;4.386;2023-02-01T00:10:07;29.13;;;13.90;;
22525;SDS011;11429;50.842;4.386;2023-02-01T00:12:33;31.50;;;13.48;;
22525;SDS011;11429;50.842;4.386;2023-02-01T00:14:59;26.88;;;13.63;;
22525;SDS011;11429;50.842;4.386;2023-02-01T00:17:25;29.58;;;13.40;;
22525;SDS011;11429;50.842;4.386;2023-02-01T00:19:50;33.70;;;14.45;;
22525;SDS011;11429;50.842;4.386;2023-02-01T00:22:16;24.30;;;12.60;;
22525;SDS011;11429;50.842;4.386;2023-02-01T00:24:41;30.30;;;14.20;;
22525;SDS011;11429;50.842;4.386;2023-02-01T00:27:07;33.10;;;14.68;;
22525;SDS011;11429;50.842;4.386;2023-02-01T00:29:33;27.70;;;13.70;;
22525;SDS011;11429;50.842;4.386;2023-02-01T00:31:58;28.83;;;13.38;;
22525;SDS011;11429;50.842;4.386;2023-02-01T00:34:24;30.98;;;12.27;;
22525;SDS011;11429;50.842;4.386;2023-02-01T00:36:49;35.50;;;13.25;;
22525;SDS011;11429;50.842;4.386;2023-02-01T00:39:15;29.52;;;12.95;;
22525;SDS011;11429;50.842;4.386;2023-02-01T00:41:41;29.10;;;12.68;;
22525;SDS011;11429;50.842;4.386;2023-02-01T00:44:07;29.73;;;11.50;;
22525;SDS011;11429;50.842;4.386;2023-02-01T00:46:33;26.70;;;11.43;;
22525;SDS011;11429;50.842;4.386;2023-02-01T00:48:59;25.67;;;10.80;;
22525;SDS011;11429;50.842;4.386;2023-02-01T00:51:25;24.52;;;10.25;;
22525;SDS011;11429;50.842;4.386;2023-02-01T00:53:52;23.38;;;10.80;;
22525;SDS011;11429;50.842;4.386;2023-02-01T00:56:18;21.98;;;9.50;;
22525;SDS011;11429;50.842;4.386;2023-02-01T00:58:44;22.35;;;10.13;;
22525;SDS011;11429;50.842;4.386;2023-02-01T01:01:11;20.65;;;10.25;;
22525;SDS011;11429;50.842;4.386;2023-02-01T01:03:43;26.45;;;10.85;;
22525;SDS011;11429;50.842;4.386;2023-02-01T01:06:11;26.30;;;9.80;;
22525;SDS011;11429;50.842;4.386;2023-02-01T01:08:39;26.77;;;10.32;;
22525;SDS011;11429;50.842;4.386;2023-02-01T01:11:06;27.08;;;9.85;;
22525;SDS011;11429;50.842;4.386;2023-02-01T01:13:33;23.52;;;9.88;;
22525;SDS011;11429;50.842;4.386;2023-02-01T01:15:59;26.27;;;9.48;;
22525;SDS011;11429;50.842;4.386;2023-02-01T01:18:27;26.23;;;9.68;;
22525;SDS011;11429;50.842;4.386;2023-02-01T01:20:54;22.77;;;9.70;;
22525;SDS011;11429;50.842;4.386;2023-02-01T01:23:20;23.40;;;8.27;;
22525;SDS011;11429;50.842;4.386;2023-02-01T01:25:45;18.95;;;7.82;;
22525;SDS011;11429;50.842;4.386;2023-02-01T01:28:11;26.30;;;8.15;;
22525;SDS011;11429;50.842;4.386;2023-02-01T01:30:37;24.98;;;7.68;;
22525;SDS011;11429;50.842;4.386;2023-02-01T01:33:02;21.38;;;6.68;;
22525;SDS011;11429;50.842;4.386;2023-02-01T01:35:29;25.92;;;7.55;;
22525;SDS011;11429;50.842;4.386;2023-02-01T01:37:56;19.23;;;6.78;;
22525;SDS011;11429;50.842;4.386;2023-02-01T01:40:22;23.20;;;6.47;;
22525;SDS011;11429;50.842;4.386;2023-02-01T01:42:47;21.90;;;6.00;;
22525;SDS011;11429;50.842;4.386;2023-02-01T01:45:23;27.25;;;6.38;;
22525;SDS011;11429;50.842;4.386;2023-02-01T01:48:01;18.08;;;5.28;;
22525;SDS011;11429;50.842;4.386;2023-02-01T01:50:32;20.25;;;3.92;;
22525;SDS011;11429;50.842;4.386;2023-02-01T01:53:02;24.00;;;5.65;;
22525;SDS011;11429;50.842;4.386;2023-02-01T01:55:31;20.45;;;4.95;;
22525;SDS011;11429;50.842;4.386;2023-02-01T01:58:00;22.13;;;5.68;;
22525;SDS011;11429;50.842;4.386;2023-02-01T02:00:30;18.95;;;5.40;;
22525;SDS011;11429;50.842;4.386;2023-02-01T02:02:58;18.58;;;4.35;;
22525;SDS011;11429;50.842;4.386;2023-02-01T02:05:32;23.58;;;4.45;;
22525;SDS011;11429;50.842;4.386;2023-02-01T02:07:58;25.15;;;5.10;;
22525;SDS011;11429;50.842;4.386;2023-02-01T02:10:27;21.50;;;4.88;;
22525;SDS011;11429;50.842;4.386;2023-02-01T02:13:12;21.75;;;4.90;;
22525;SDS011;11429;50.842;4.386;2023-02-01T02:15:41;21.10;;;4.07;;
22525;SDS011;11429;50.842;4.386;2023-02-01T02:18:27;17.20;;;4.53;;
22525;SDS011;11429;50.842;4.386;2023-02-01T02:24:01;20.27;;;4.35;;
22525;SDS011;11429;50.842;4.386;2023-02-01T02:27:00;18.60;;;4.78;;
22525;SDS011;11429;50.842;4.386;2023-02-01T02:38:18;20.92;;;4.18;;
22525;SDS011;11429;50.842;4.386;2023-02-01T02:44:05;16.10;;;4.28;;
22525;SDS011;11429;50.842;4.386;2023-02-01T02:47:10;19.10;;;4.35;;
22525;SDS011;11429;50.842;4.386;2023-02-01T02:49:50;24.75;;;4.90;;
22525;SDS011;11429;50.842;4.386;2023-02-01T02:52:42;17.52;;;4.18;;
22525;SDS011;11429;50.842;4.386;2023-02-01T02:55:33;22.88;;;4.88;;
22525;SDS011;11429;50.842;4.386;2023-02-01T02:58:02;19.33;;;4.30;;
22525;SDS011;11429;50.842;4.386;2023-02-01T03:00:49;22.95;;;5.50;;
22525;SDS011;11429;50.842;4.386;2023-02-01T03:03:38;15.75;;;4.60;;
22525;SDS011;11429;50.842;4.386;2023-02-01T03:06:23;24.33;;;4.65;;
22525;SDS011;11429;50.842;4.386;2023-02-01T03:08:51;23.30;;;3.80;;
22525;SDS011;11429;50.842;4.386;2023-02-01T03:11:21;20.60;;;4.35;;
22525;SDS011;11429;50.842;4.386;2023-02-01T03:14:09;19.00;;;4.13;;
22525;SDS011;11429;50.842;4.386;2023-02-01T03:19:25;21.98;;;5.30;;
22525;SDS011;11429;50.842;4.386;2023-02-01T03:21:57;20.17;;;4.03;;
22525;SDS011;11429;50.842;4.386;2023-02-01T03:24:31;20.45;;;4.65;;
22525;SDS011;11429;50.842;4.386;2023-02-01T03:27:02;16.88;;;3.92;;
22525;SDS011;11429;50.842;4.386;2023-02-01T03:29:46;23.10;;;5.22;;
22525;SDS011;11429;50.842;4.386;2023-02-01T03:32:21;18.77;;;4.07;;
22525;SDS011;11429;50.842;4.386;2023-02-01T03:34:47;27.38;;;4.30;;
22525;SDS011;11429;50.842;4.386;2023-02-01T03:37:16;17.25;;;3.45;;
22525;SDS011;11429;50.842;4.386;2023-02-01T03:42:35;18.35;;;4.50;;
22525;SDS011;11429;50.842;4.386;2023-02-01T03:45:07;22.55;;;5.13;;
22525;SDS011;11429;50.842;4.386;2023-02-01T03:47:40;20.15;;;4.15;;
22525;SDS011;11429;50.842;4.386;2023-02-01T03:50:10;20.92;;;4.03;;
22525;SDS011;11429;50.842;4.386;2023-02-01T03:52:44;20.25;;;4.10;;
22525;SDS011;11429;50.842;4.386;2023-02-01T03:55:14;18.90;;;3.95;;
22525;SDS011;11429;50.842;4.386;2023-02-01T03:57:43;19.77;;;4.60;;
22525;SDS011;11429;50.842;4.386;2023-02-01T04:00:21;21.88;;;5.32;;
22525;SDS011;11429;50.842;4.386;2023-02-01T04:02:49;23.90;;;4.10;;
22525;SDS011;11429;50.842;4.386;2023-02-01T04:05:15;26.80;;;5.18;;
22525;SDS011;11429;50.842;4.386;2023-02-01T04:07:41;21.33;;;4.28;;
22525;SDS011;11429;50.842;4.386;2023-02-01T04:10:08;25.23;;;4.45;;
22525;SDS011;11429;50.842;4.386;2023-02-01T04:12:34;17.48;;;4.68;;
22525;SDS011;11429;50.842;4.386;2023-02-01T04:15:00;17.67;;;4.35;;
22525;SDS011;11429;50.842;4.386;2023-02-01T04:17:26;23.98;;;4.53;;
22525;SDS011;11429;50.842;4.386;2023-02-01T04:19:51;20.02;;;4.22;;
22525;SDS011;11429;50.842;4.386;2023-02-01T04:22:17;18.92;;;3.80;;
22525;SDS011;11429;50.842;4.386;2023-02-01T04:24:43;23.58;;;4.53;;
22525;SDS011;11429;50.842;4.386;2023-02-01T04:27:08;25.98;;;4.30;;
22525;SDS011;11429;50.842;4.386;2023-02-01T04:29:34;24.55;;;5.13;;
22525;SDS011;11429;50.842;4.386;2023-02-01T04:32:00;23.42;;;4.75;;
22525;SDS011;11429;50.842;4.386;2023-02-01T04:34:25;24.00;;;4.03;;
22525;SDS011;11429;50.842;4.386;2023-02-01T04:36:51;18.13;;;3.42;;
22525;SDS011;11429;50.842;4.386;2023-02-01T04:39:17;18.63;;;4.03;;
22525;SDS011;11429;50.842;4.386;2023-02-01T04:41:42;20.67;;;4.43;;
22525;SDS011;11429;50.842;4.386;2023-02-01T04:44:15;20.95;;;4.32;;
22525;SDS011;11429;50.842;4.386;2023-02-01T04:46:42;22.83;;;3.95;;
22525;SDS011;11429;50.842;4.386;2023-02-01T04:49:09;19.20;;;4.13;;
22525;SDS011;11429;50.842;4.386;2023-02-01T04:51:35;24.75;;;4.60;;
22525;SDS011;11429;50.842;4.386;2023-02-01T04:54:00;26.92;;;5.22;;
22525;SDS011;11429;50.842;4.386;2023-02-01T04:56:26;21.73;;;4.30;;
22525;SDS011;11429;50.842;4.386;2023-02-01T04:58:52;20.45;;;4.25;;
22525;SDS011;11429;50.842;4.386;2023-02-01T05:01:18;25.33;;;4.43;;
22525;SDS011;11429;50.842;4.386;2023-02-01T05:03:44;20.05;;;4.72;;
22525;SDS011;11429;50.842;4.386;2023-02-01T05:06:09;22.17;;;4.47;;
22525;SDS011;11429;50.842;4.386;2023-02-01T05:08:35;17.92;;;4.07;;
22525;SDS011;11429;50.842;4.386;2023-02-01T05:11:01;20.58;;;4.25;;
22525;SDS011;11429;50.842;4.386;2023-02-01T05:13:29;25.40;;;4.78;;
22525;SDS011;11429;50.842;4.386;2023-02-01T05:16:14;26.35;;;4.38;;
22525;SDS011;11429;50.842;4.386;2023-02-01T05:18:40;22.30;;;3.92;;
22525;SDS011;11429;50.842;4.386;2023-02-01T05:21:06;18.35;;;4.95;;
22525;SDS011;11429;50.842;4.386;2023-02-01T05:23:32;20.02;;;4.47;;
22525;SDS011;11429;50.842;4.386;2023-02-01T05:28:43;22.00;;;4.10;;
22525;SDS011;11429;50.842;4.386;2023-02-01T05:31:09;20.10;;;4.15;;
22525;SDS011;11429;50.842;4.386;2023-02-01T05:33:35;41.20;;;5.50;;
22525;SDS011;11429;50.842;4.386;2023-02-01T05:36:01;22.92;;;4.65;;
22525;SDS011;11429;50.842;4.386;2023-02-01T05:38:27;22.83;;;4.75;;
22525;SDS011;11429;50.842;4.386;2023-02-01T05:40:54;18.38;;;3.90;;
22525;SDS011;11429;50.842;4.386;2023-02-01T05:43:20;19.63;;;3.58;;
22525;SDS011;11429;50.842;4.386;2023-02-01T05:45:46;26.33;;;4.72;;
22525;SDS011;11429;50.842;4.386;2023-02-01T05:48:11;25.88;;;4.63;;
22525;SDS011;11429;50.842;4.386;2023-02-01T05:50:37;17.80;;;4.05;;
22525;SDS011;11429;50.842;4.386;2023-02-01T05:53:03;16.02;;;4.25;;
22525;SDS011;11429;50.842;4.386;2023-02-01T05:55:28;25.33;;;4.38;;
22525;SDS011;11429;50.842;4.386;2023-02-01T05:57:54;20.65;;;4.35;;
22525;SDS011;11429;50.842;4.386;2023-02-01T06:00:20;20.17;;;4.50;;
22525;SDS011;11429;50.842;4.386;2023-02-01T06:02:46;27.88;;;4.68;;
22525;SDS011;11429;50.842;4.386;2023-02-01T06:05:11;21.17;;;3.83;;
22525;SDS011;11429;50.842;4.386;2023-02-01T06:07:37;19.73;;;4.22;;
22525;SDS011;11429;50.842;4.386;2023-02-01T06:10:03;25.27;;;4.63;;
22525;SDS011;11429;50.842;4.386;2023-02-01T06:12:29;23.73;;;4.32;;
22525;SDS011;11429;50.842;4.386;2023-02-01T06:14:55;21.52;;;4.60;;
22525;SDS011;11429;50.842;4.386;2023-02-01T06:17:21;20.83;;;4.53;;
22525;SDS011;11429;50.842;4.386;2023-02-01T06:19:52;19.02;;;3.83;;
22525;SDS011;11429;50.842;4.386;2023-02-01T06:22:18;19.02;;;3.90;;
22525;SDS011;11429;50.842;4.386;2023-02-01T06:24:44;18.48;;;4.35;;
22525;SDS011;11429;50.842;4.386;2023-02-01T06:27:10;29.90;;;4.53;;
22525;SDS011;11429;50.842;4.386;2023-02-01T06:29:39;21.08;;;4.05;;
22525;SDS011;11429;50.842;4.386;2023-02-01T06:32:06;18.55;;;3.88;;
22525;SDS011;11429;50.842;4.386;2023-02-01T06:34:32;18.23;;;3.97;;
22525;SDS011;11429;50.842;4.386;2023-02-01T06:37:03;14.63;;;3.78;;
22525;SDS011;11429;50.842;4.386;2023-02-01T06:39:29;18.90;;;4.30;;
22525;SDS011;11429;50.842;4.386;2023-02-01T06:41:55;26.20;;;4.38;;
22525;SDS011;11429;50.842;4.386;2023-02-01T06:44:20;22.67;;;4.18;;
22525;SDS011;11429;50.842;4.386;2023-02-01T06:46:46;22.17;;;4.38;;
22525;SDS011;11429;50.842;4.386;2023-02-01T06:49:11;20.73;;;4.60;;
22525;SDS011;11429;50.842;4.386;2023-02-01T06:51:38;23.15;;;4.50;;
22525;SDS011;11429;50.842;4.386;2023-02-01T06:54:03;21.02;;;4.72;;
22525;SDS011;11429;50.842;4.386;2023-02-01T06:56:29;19.45;;;4.15;;
22525;SDS011;11429;50.842;4.386;2023-02-01T06:58:56;25.05;;;5.35;;
22525;SDS011;11429;50.842;4.386;2023-02-01T07:01:22;22.42;;;4.63;;
22525;SDS011;11429;50.842;4.386;2023-02-01T07:03:48;27.70;;;5.07;;
22525;SDS011;11429;50.842;4.386;2023-02-01T07:06:16;23.17;;;4.78;;
22525;SDS011;11429;50.842;4.386;2023-02-01T07:08:42;16.63;;;4.20;;
22525;SDS011;11429;50.842;4.386;2023-02-01T07:11:09;20.73;;;4.60;;
22525;SDS011;11429;50.842;4.386;2023-02-01T07:13:37;27.70;;;5.13;;
22525;SDS011;11429;50.842;4.386;2023-02-01T07:16:04;21.08;;;4.72;;
22525;SDS011;11429;50.842;4.386;2023-02-01T07:18:32;20.27;;;3.97;;
22525;SDS011;11429;50.842;4.386;2023-02-01T07:20:58;20.98;;;4.57;;
22525;SDS011;11429;50.842;4.386;2023-02-01T07:23:24;24.05;;;4.40;;
22525;SDS011;11429;50.842;4.386;2023-02-01T07:25:54;24.05;;;4.07;;
22525;SDS011;11429;50.842;4.386;2023-02-01T07:28:24;20.85;;;4.63;;
22525;SDS011;11429;50.842;4.386;2023-02-01T07:30:50;22.13;;;5.10;;
22525;SDS011;11429;50.842;4.386;2023-02-01T07:33:21;25.85;;;4.50;;
22525;SDS011;11429;50.842;4.386;2023-02-01T07:35:48;31.13;;;6.05;;
22525;SDS011;11429;50.842;4.386;2023-02-01T07:38:15;20.27;;;5.13;;
22525;SDS011;11429;50.842;4.386;2023-02-01T07:40:41;19.67;;;5.70;;
22525;SDS011;11429;50.842;4.386;2023-02-01T07:43:07;27.45;;;4.68;;
22525;SDS011;11429;50.842;4.386;2023-02-01T07:45:34;24.02;;;5.13;;
22525;SDS011;11429;50.842;4.386;2023-02-01T07:48:00;26.67;;;5.60;;
22525;SDS011;11429;50.842;4.386;2023-02-01T07:50:26;23.77;;;5.07;;
22525;SDS011;11429;50.842;4.386;2023-02-01T07:52:52;19.17;;;4.95;;
22525;SDS011;11429;50.842;4.386;2023-02-01T07:55:18;26.00;;;4.68;;
22525;SDS011;11429;50.842;4.386;2023-02-01T07:57:44;25.88;;;4.88;;
22525;SDS011;11429;50.842;4.386;2023-02-01T08:00:11;32.28;;;5.45;;
22525;SDS011;11429;50.842;4.386;2023-02-01T08:02:57;26.10;;;5.10;;
22525;SDS011;11429;50.842;4.386;2023-02-01T08:05:23;19.70;;;4.18;;
22525;SDS011;11429;50.842;4.386;2023-02-01T08:07:49;21.33;;;4.63;;
22525;SDS011;11429;50.842;4.386;2023-02-01T08:10:16;25.13;;;5.25;;
22525;SDS011;11429;50.842;4.386;2023-02-01T08:12:42;26.98;;;4.65;;
22525;SDS011;11429;50.842;4.386;2023-02-01T08:15:12;26.35;;;5.47;;
22525;SDS011;11429;50.842;4.386;2023-02-01T08:17:48;25.08;;;4.78;;
22525;SDS011;11429;50.842;4.386;2023-02-01T08:20:14;27.92;;;5.40;;
22525;SDS011;11429;50.842;4.386;2023-02-01T08:22:41;24.58;;;5.03;;
22525;SDS011;11429;50.842;4.386;2023-02-01T08:25:07;21.92;;;4.75;;
22525;SDS011;11429;50.842;4.386;2023-02-01T08:27:33;22.35;;;4.68;;
22525;SDS011;11429;50.842;4.386;2023-02-01T08:29:59;28.83;;;5.85;;
22525;SDS011;11429;50.842;4.386;2023-02-01T08:32:25;17.33;;;4.22;;
22525;SDS011;11429;50.842;4.386;2023-02-01T08:34:52;22.60;;;4.95;;
22525;SDS011;11429;50.842;4.386;2023-02-01T08:37:17;23.67;;;5.25;;
22525;SDS011;11429;50.842;4.386;2023-02-01T08:39:43;23.83;;;5.35;;
22525;SDS011;11429;50.842;4.386;2023-02-01T08:42:09;21.02;;;4.65;;
22525;SDS011;11429;50.842;4.386;2023-02-01T08:44:54;21.40;;;4.85;;
22525;SDS011;11429;50.842;4.386;2023-02-01T08:47:21;29.75;;;5.82;;
22525;SDS011;11429;50.842;4.386;2023-02-01T08:49:47;21.52;;;4.63;;
22525;SDS011;11429;50.842;4.386;2023-02-01T08:52:13;28.30;;;5.13;;
22525;SDS011;11429;50.842;4.386;2023-02-01T08:54:39;20.70;;;4.43;;
22525;SDS011;11429;50.842;4.386;2023-02-01T08:57:06;27.98;;;6.20;;
22525;SDS011;11429;50.842;4.386;2023-02-01T08:59:34;26.45;;;4.97;;
22525;SDS011;11429;50.842;4.386;2023-02-01T09:02:00;21.60;;;5.22;;
22525;SDS011;11429;50.842;4.386;2023-02-01T09:04:26;30.27;;;5.13;;
22525;SDS011;11429;50.842;4.386;2023-02-01T09:06:52;26.98;;;5.53;;
22525;SDS011;11429;50.842;4.386;2023-02-01T09:09:21;21.90;;;5.45;;
22525;SDS011;11429;50.842;4.386;2023-02-01T09:11:47;20.52;;;5.18;;
22525;SDS011;11429;50.842;4.386;2023-02-01T09:14:13;22.08;;;4.28;;
22525;SDS011;11429;50.842;4.386;2023-02-01T09:16:38;24.95;;;5.15;;
22525;SDS011;11429;50.842;4.386;2023-02-01T09:19:04;27.05;;;4.97;;
22525;SDS011;11429;50.842;4.386;2023-02-01T09:21:30;25.45;;;5.05;;
22525;SDS011;11429;50.842;4.386;2023-02-01T09:23:57;24.63;;;5.13;;
22525;SDS011;11429;50.842;4.386;2023-02-01T09:26:22;25.90;;;5.35;;
22525;SDS011;11429;50.842;4.386;2023-02-01T09:28:48;26.23;;;4.20;;
22525;SDS011;11429;50.842;4.386;2023-02-01T09:31:14;20.33;;;4.68;;
22525;SDS011;11429;50.842;4.386;2023-02-01T09:33:41;22.73;;;4.82;;
22525;SDS011;11429;50.842;4.386;2023-02-01T09:36:06;21.83;;;4.80;;
22525;SDS011;11429;50.842;4.386;2023-02-01T09:38:32;22.98;;;4.65;;
22525;SDS011;11429;50.842;4.386;2023-02-01T09:40:58;29.52;;;5.30;;
22525;SDS011;11429;50.842;4.386;2023-02-01T09:49:09;21.50;;;5.18;;
22525;SDS011;11429;50.842;4.386;2023-02-01T09:51:48;25.00;;;4.82;;
22525;SDS011;11429;50.842;4.386;2023-02-01T09:54:20;23.30;;;4.70;;
22525;SDS011;11429;50.842;4.386;2023-02-01T10:02:01;22.48;;;4.30;;
22525;SDS011;11429;50.842;4.386;2023-02-01T10:04:30;19.77;;;4.60;;
22525;SDS011;11429;50.842;4.386;2023-02-01T10:07:03;19.67;;;4.38;;
22525;SDS011;11429;50.842;4.386;2023-02-01T10:09:52;23.33;;;5.25;;
22525;SDS011;11429;50.842;4.386;2023-02-01T10:21:16;20.00;;;4.38;;
22525;SDS011;11429;50.842;4.386;2023-02-01T10:29:58;18.25;;;4.47;;
22525;SDS011;11429;50.842;4.386;2023-02-01T10:32:33;23.00;;;4.25;;
22525;SDS011;11429;50.842;4.386;2023-02-01T10:35:22;20.92;;;4.70;;
22525;SDS011;11429;50.842;4.386;2023-02-01T10:37:59;20.55;;;4.47;;
22525;SDS011;11429;50.842;4.386;2023-02-01T10:40:27;17.15;;;3.97;;
22525;SDS011;11429;50.842;4.386;2023-02-01T10:42:54;22.65;;;4.05;;
22525;SDS011;11429;50.842;4.386;2023-02-01T10:45:24;14.65;;;3.60;;
22525;SDS011;11429;50.842;4.386;2023-02-01T10:47:52;17.80;;;3.80;;
22525;SDS011;11429;50.842;4.386;2023-02-01T10:53:16;22.67;;;4.63;;
22525;SDS011;11429;50.842;4.386;2023-02-01T10:55:49;19.55;;;4.30;;
22525;SDS011;11429;50.842;4.386;2023-02-01T11:00:54;19.70;;;3.88;;
22525;SDS011;11429;50.842;4.386;2023-02-01T11:06:08;18.85;;;3.85;;
22525;SDS011;11429;50.842;4.386;2023-02-01T11:08:51;18.38;;;3.85;;
22525;SDS011;11429;50.842;4.386;2023-02-01T11:11:19;16.30;;;4.13;;
22525;SDS011;11429;50.842;4.386;2023-02-01T11:13:56;18.17;;;4.00;;
22525;SDS011;11429;50.842;4.386;2023-02-01T11:16:58;17.35;;;3.38;;
22525;SDS011;11429;50.842;4.386;2023-02-01T11:19:27;15.55;;;3.33;;
22525;SDS011;11429;50.842;4.386;2023-02-01T11:21:54;15.95;;;3.47;;
22525;SDS011;11429;50.842;4.386;2023-02-01T11:24:26;16.55;;;3.10;;
22525;SDS011;11429;50.842;4.386;2023-02-01T11:26:57;14.38;;;3.28;;
22525;SDS011;11429;50.842;4.386;2023-02-01T11:29:24;16.70;;;4.10;;
22525;SDS011;11429;50.842;4.386;2023-02-01T11:31:58;21.38;;;5.75;;
22525;SDS011;11429;50.842;4.386;2023-02-01T11:34:25;19.13;;;3.53;;
22525;SDS011;11429;50.842;4.386;2023-02-01T11:36:59;18.88;;;4.15;;
22525;SDS011;11429;50.842;4.386;2023-02-01T11:39:32;17.27;;;3.42;;
22525;SDS011;11429;50.842;4.386;2023-02-01T11:46:53;14.70;;;4.22;;
22525;SDS011;11429;50.842;4.386;2023-02-01T11:49:21;12.07;;;3.17;;
22525;SDS011;11429;50.842;4.386;2023-02-01T12:05:27;12.93;;;3.17;;
22525;SDS011;11429;50.842;4.386;2023-02-01T12:08:21;14.65;;;3.20;;
22525;SDS011;11429;50.842;4.386;2023-02-01T12:31:09;12.57;;;2.70;;
22525;SDS011;11429;50.842;4.386;2023-02-01T12:36:42;12.40;;;2.45;;
22525;SDS011;11429;50.842;4.386;2023-02-01T12:39:23;13.68;;;2.90;;
22525;SDS011;11429;50.842;4.386;2023-02-01T12:41:58;12.80;;;2.50;;
22525;SDS011;11429;50.842;4.386;2023-02-01T12:49:44;12.38;;;2.83;;
22525;SDS011;11429;50.842;4.386;2023-02-01T12:52:16;12.80;;;2.50;;
22525;SDS011;11429;50.842;4.386;2023-02-01T12:54:56;10.13;;;2.85;;
22525;SDS011;11429;50.842;4.386;2023-02-01T12:57:32;11.15;;;2.17;;
22525;SDS011;11429;50.842;4.386;2023-02-01T13:08:59;10.55;;;2.30;;
22525;SDS011;11429;50.842;4.386;2023-02-01T13:11:37;12.43;;;2.53;;
22525;SDS011;11429;50.842;4.386;2023-02-01T13:14:13;10.85;;;2.35;;
22525;SDS011;11429;50.842;4.386;2023-02-01T13:16:43;14.93;;;2.90;;
22525;SDS011;11429;50.842;4.386;2023-02-01T13:19:17;10.57;;;2.17;;
22525;SDS011;11429;50.842;4.386;2023-02-01T13:21:52;10.77;;;2.20;;
22525;SDS011;11429;50.842;4.386;2023-02-01T13:24:24;16.83;;;2.75;;
22525;SDS011;11429;50.842;4.386;2023-02-01T13:27:13;11.38;;;2.42;;
22525;SDS011;11429;50.842;4.386;2023-02-01T13:29:43;10.43;;;2.47;;
22525;SDS011;11429;50.842;4.386;2023-02-01T13:32:28;10.45;;;2.47;;
22525;SDS011;11429;50.842;4.386;2023-02-01T13:35:19;12.30;;;2.80;;
22525;SDS011;11429;50.842;4.386;2023-02-01T13:40:53;8.70;;;2.00;;
22525;SDS011;11429;50.842;4.386;2023-02-01T13:43:28;10.25;;;2.38;;
22525;SDS011;11429;50.842;4.386;2023-02-01T13:45:57;9.93;;;2.00;;
22525;SDS011;11429;50.842;4.386;2023-02-01T13:51:32;24.02;;;3.28;;
22525;SDS011;11429;50.842;4.386;2023-02-01T13:54:00;12.98;;;2.90;;
22525;SDS011;11429;50.842;4.386;2023-02-01T13:56:26;14.20;;;2.95;;
22525;SDS011;11429;50.842;4.386;2023-02-01T13:58:52;11.43;;;2.17;;
22525;SDS011;11429;50.842;4.386;2023-02-01T14:06:17;9.93;;;2.17;;
22525;SDS011;11429;50.842;4.386;2023-02-01T14:16:44;10.93;;;1.98;;
22525;SDS011;11429;50.842;4.386;2023-02-01T14:21:51;10.43;;;2.30;;
22525;SDS011;11429;50.842;4.386;2023-02-01T14:24:30;14.27;;;2.25;;
22525;SDS011;11429;50.842;4.386;2023-02-01T14:29:34;15.98;;;2.83;;
22525;SDS011;11429;50.842;4.386;2023-02-01T14:32:18;10.68;;;2.05;;
22525;SDS011;11429;50.842;4.386;2023-02-01T14:45:49;11.35;;;2.00;;
22525;SDS011;11429;50.842;4.386;2023-02-01T15:01:05;9.77;;;1.98;;
22525;SDS011;11429;50.842;4.386;2023-02-01T15:14:31;13.52;;;2.75;;
22525;SDS011;11429;50.842;4.386;2023-02-01T15:17:00;10.30;;;2.55;;
22525;SDS011;11429;50.842;4.386;2023-02-01T15:19:29;14.23;;;3.05;;
22525;SDS011;11429;50.842;4.386;2023-02-01T15:21:58;17.17;;;3.30;;
22525;SDS011;11429;50.842;4.386;2023-02-01T15:24:27;16.35;;;3.67;;
22525;SDS011;11429;50.842;4.386;2023-02-01T15:26:56;16.90;;;3.17;;
22525;SDS011;11429;50.842;4.386;2023-02-01T15:29:30;15.75;;;3.30;;
22525;SDS011;11429;50.842;4.386;2023-02-01T15:31:58;13.85;;;2.72;;
22525;SDS011;11429;50.842;4.386;2023-02-01T15:34:33;17.77;;;3.03;;
22525;SDS011;11429;50.842;4.386;2023-02-01T15:37:14;12.55;;;2.83;;
22525;SDS011;11429;50.842;4.386;2023-02-01T15:42:29;14.10;;;3.17;;
22525;SDS011;11429;50.842;4.386;2023-02-01T15:44:57;17.38;;;3.35;;
22525;SDS011;11429;50.842;4.386;2023-02-01T15:47:26;16.45;;;3.05;;
22525;SDS011;11429;50.842;4.386;2023-02-01T15:49:55;14.35;;;3.30;;
22525;SDS011;11429;50.842;4.386;2023-02-01T15:52:34;19.92;;;4.03;;
22525;SDS011;11429;50.842;4.386;2023-02-01T15:55:03;17.88;;;3.70;;
22525;SDS011;11429;50.842;4.386;2023-02-01T15:57:42;18.10;;;4.22;;
22525;SDS011;11429;50.842;4.386;2023-02-01T16:02:55;12.57;;;2.75;;
22525;SDS011;11429;50.842;4.386;2023-02-01T16:05:33;15.57;;;3.67;;
22525;SDS011;11429;50.842;4.386;2023-02-01T16:10:45;18.08;;;3.53;;
22525;SDS011;11429;50.842;4.386;2023-02-01T16:13:12;16.52;;;3.00;;
22525;SDS011;11429;50.842;4.386;2023-02-01T16:15:40;19.60;;;3.42;;
22525;SDS011;11429;50.842;4.386;2023-02-01T16:18:05;18.05;;;3.35;;
22525;SDS011;11429;50.842;4.386;2023-02-01T16:20:35;18.27;;;4.00;;
22525;SDS011;11429;50.842;4.386;2023-02-01T16:23:02;15.27;;;3.67;;
22525;SDS011;11429;50.842;4.386;2023-02-01T16:25:28;20.45;;;3.83;;
22525;SDS011;11429;50.842;4.386;2023-02-01T16:27:54;20.92;;;3.35;;
22525;SDS011;11429;50.842;4.386;2023-02-01T16:30:19;21.60;;;4.40;;
22525;SDS011;11429;50.842;4.386;2023-02-01T16:32:51;16.13;;;4.07;;
22525;SDS011;11429;50.842;4.386;2023-02-01T16:35:22;16.60;;;3.15;;
22525;SDS011;11429;50.842;4.386;2023-02-01T16:37:50;13.90;;;3.38;;
22525;SDS011;11429;50.842;4.386;2023-02-01T16:40:16;20.20;;;3.67;;
22525;SDS011;11429;50.842;4.386;2023-02-01T16:42:43;15.75;;;2.95;;
22525;SDS011;11429;50.842;4.386;2023-02-01T16:45:12;16.17;;;3.30;;
22525;SDS011;11429;50.842;4.386;2023-02-01T16:47:38;18.60;;;3.22;;
22525;SDS011;11429;50.842;4.386;2023-02-01T16:50:16;16.27;;;3.50;;
22525;SDS011;11429;50.842;4.386;2023-02-01T16:52:45;13.70;;;3.05;;
22525;SDS011;11429;50.842;4.386;2023-02-01T16:55:14;19.58;;;4.20;;
22525;SDS011;11429;50.842;4.386;2023-02-01T16:57:42;23.30;;;4.20;;
22525;SDS011;11429;50.842;4.386;2023-02-01T17:00:08;18.55;;;4.07;;
22525;SDS011;11429;50.842;4.386;2023-02-01T17:02:35;17.73;;;4.15;;
22525;SDS011;11429;50.842;4.386;2023-02-01T17:05:01;23.70;;;4.15;;
22525;SDS011;11429;50.842;4.386;2023-02-01T17:07:26;16.02;;;3.83;;
22525;SDS011;11429;50.842;4.386;2023-02-01T17:09:52;18.17;;;4.05;;
22525;SDS011;11429;50.842;4.386;2023-02-01T17:12:25;18.38;;;4.15;;
22525;SDS011;11429;50.842;4.386;2023-02-01T17:14:54;18.80;;;3.78;;
22525;SDS011;11429;50.842;4.386;2023-02-01T17:17:20;20.38;;;4.38;;
22525;SDS011;11429;50.842;4.386;2023-02-01T17:19:47;20.13;;;4.00;;
22525;SDS011;11429;50.842;4.386;2023-02-01T17:22:17;16.05;;;4.28;;
22525;SDS011;11429;50.842;4.386;2023-02-01T17:24:43;17.10;;;4.10;;
22525;SDS011;11429;50.842;4.386;2023-02-01T17:27:09;19.73;;;4.55;;
22525;SDS011;11429;50.842;4.386;2023-02-01T17:29:35;21.98;;;3.95;;
22525;SDS011;11429;50.842;4.386;2023-02-01T17:32:01;17.48;;;4.60;;
22525;SDS011;11429;50.842;4.386;2023-02-01T17:34:27;18.58;;;4.05;;
22525;SDS011;11429;50.842;4.386;2023-02-01T17:36:53;16.65;;;3.83;;
22525;SDS011;11429;50.842;4.386;2023-02-01T17:39:19;13.55;;;3.45;;
22525;SDS011;11429;50.842;4.386;2023-02-01T17:42:04;16.90;;;3.93;;
22525;SDS011;11429;50.842;4.386;2023-02-01T17:44:33;19.73;;;3.85;;
22525;SDS011;11429;50.842;4.386;2023-02-01T17:46:58;22.70;;;4.57;;